createdAt,value
2024-02-21T00:00:12.713Z,100.00
2024-02-21T00:05:15.528Z,100.00
2024-02-21T00:10:18.316Z,100.00
2024-02-21T00:15:21.026Z,100.00
2024-02-21T00:20:24.043Z,100.00
2024-02-21T00:25:27.359Z,100.00
2024-02-21T00:30:30.027Z,100.00
2024-02-21T00:35:32.763Z,100.00
2024-02-21T00:40:35.433Z,100.00
2024-02-21T00:45:37.892Z,100.00
2024-02-21T00:50:40.483Z,100.00
2024-02-21T00:55:44.480Z,100.00
2024-02-21T01:00:46.986Z,100.00
2024-02-21T01:05:49.399Z,100.00
2024-02-21T01:10:52.622Z,100.00
2024-02-21T01:15:55.228Z,100.00
2024-02-21T01:20:57.728Z,100.00
2024-02-21T01:26:00.244Z,100.00
2024-02-21T01:31:03.049Z,100.00
2024-02-21T01:36:05.845Z,100.00
2024-02-21T01:41:08.673Z,100.00
2024-02-21T01:46:11.559Z,100.00
2024-02-21T01:51:14.226Z,100.00
2024-02-21T01:56:16.683Z,100.00
2024-02-21T02:01:21.726Z,100.00
2024-02-21T02:06:24.903Z,100.00
2024-02-21T02:11:27.693Z,100.00
2024-02-21T02:16:31.037Z,100.00
2024-02-21T02:21:33.717Z,100.00
2024-02-21T02:26:36.163Z,100.00
2024-02-21T02:31:40.038Z,100.00
2024-02-21T02:36:42.480Z,100.00
2024-02-21T02:41:46.103Z,100.00
2024-02-21T02:46:48.602Z,100.00
2024-02-21T02:51:51.138Z,100.00
2024-02-21T02:56:53.879Z,100.00
2024-02-21T03:01:56.765Z,100.00
2024-02-21T03:06:59.669Z,100.00
2024-02-21T03:12:04.605Z,100.00
2024-02-21T03:17:07.041Z,100.00
2024-02-21T03:22:09.531Z,100.00
2024-02-21T03:27:11.985Z,100.00
2024-02-21T03:32:14.705Z,100.00
2024-02-21T03:37:17.382Z,100.00
2024-02-21T03:42:19.806Z,100.00
2024-02-21T03:47:22.337Z,100.00
2024-02-21T03:52:24.873Z,100.00
2024-02-21T03:57:27.673Z,100.00
2024-02-21T04:02:30.632Z,100.00
2024-02-21T04:07:33.288Z,100.00
2024-02-21T04:12:37.277Z,100.00
2024-02-21T04:17:39.922Z,100.00
2024-02-21T04:22:42.409Z,100.00
2024-02-21T04:27:44.971Z,100.00
2024-02-21T04:32:47.405Z,100.00
2024-02-21T04:37:50.075Z,100.00
2024-02-21T04:42:52.526Z,100.00
2024-02-21T04:47:55.379Z,100.00
2024-02-21T04:52:57.899Z,100.00
2024-02-21T04:58:01.677Z,100.00
2024-02-21T05:03:04.032Z,100.00
2024-02-21T05:08:06.813Z,100.00
2024-02-21T05:13:10.908Z,100.00
2024-02-21T05:18:13.475Z,100.00
2024-02-21T05:23:15.924Z,100.00
2024-02-21T05:28:18.405Z,100.00
2024-02-21T05:33:22.883Z,100.00
2024-02-21T05:38:25.707Z,100.00
2024-02-21T05:43:28.365Z,100.00
2024-02-21T05:48:32.156Z,100.00
2024-02-21T05:53:37.743Z,100.00
2024-02-21T05:58:40.447Z,100.00
2024-02-21T06:03:43.118Z,100.00
2024-02-21T06:08:45.915Z,100.00
2024-02-21T06:13:48.410Z,100.00
2024-02-21T06:18:50.979Z,100.00
2024-02-21T06:23:53.470Z,100.00
2024-02-21T06:28:56.310Z,100.00
2024-02-21T06:33:58.914Z,100.00
2024-02-21T06:39:01.817Z,100.00
2024-02-21T06:44:04.896Z,100.00
2024-02-21T06:49:07.561Z,100.00
2024-02-21T06:54:10.634Z,100.00
2024-02-21T06:59:16.843Z,100.00
2024-02-21T07:04:19.433Z,100.00
2024-02-21T07:09:21.876Z,100.00
2024-02-21T07:14:24.286Z,100.00
2024-02-21T07:19:26.899Z,100.00
2024-02-21T07:24:29.407Z,100.00
2024-02-21T07:29:32.040Z,100.00
2024-02-21T07:34:34.598Z,100.00
2024-02-21T07:39:37.152Z,100.00
2024-02-21T07:44:39.587Z,100.00
2024-02-21T07:49:42.192Z,100.00
2024-02-21T07:54:44.661Z,100.00
2024-02-21T07:59:49.375Z,100.00
2024-02-21T08:04:52.181Z,100.00
2024-02-21T08:09:54.775Z,100.00
2024-02-21T08:14:57.254Z,100.00
2024-02-21T08:19:59.860Z,100.00
2024-02-21T08:25:02.263Z,100.00
2024-02-21T08:30:05.121Z,100.00
2024-02-21T08:35:07.748Z,100.00
2024-02-21T08:40:10.749Z,100.00
2024-02-21T08:45:13.249Z,100.00
2024-02-21T08:50:23.584Z,100.00
2024-02-21T08:55:31.241Z,100.00
2024-02-21T09:00:34.065Z,100.00
2024-02-21T09:05:36.629Z,100.00
2024-02-21T09:10:39.372Z,100.00
2024-02-21T09:15:42.024Z,100.00
2024-02-21T09:20:44.678Z,100.00
2024-02-21T09:25:47.206Z,100.00
2024-02-21T09:30:49.840Z,100.00
2024-02-21T09:35:52.436Z,100.00
2024-02-21T09:40:55.305Z,100.00
2024-02-21T09:45:57.964Z,100.00
2024-02-21T09:51:00.521Z,100.00
2024-02-21T09:56:03.202Z,100.00
2024-02-21T10:01:16.842Z,100.00
2024-02-21T10:06:24.081Z,100.00
2024-02-21T10:11:26.664Z,100.00
2024-02-21T10:16:29.446Z,100.00
2024-02-21T10:21:32.314Z,100.00
2024-02-21T10:26:34.901Z,100.00
2024-02-21T10:31:37.925Z,99.15
2024-02-21T10:36:40.712Z,97.81
2024-02-21T10:41:43.392Z,91.11
2024-02-21T10:46:46.326Z,94.07
2024-02-21T10:51:48.854Z,88.15
2024-02-21T10:56:51.748Z,81.45
2024-02-21T11:01:58.867Z,82.42
2024-02-21T11:07:02.107Z,82.85
2024-02-21T11:12:04.941Z,75.05
2024-02-21T11:17:07.930Z,74.20
2024-02-21T11:22:10.828Z,74.28
2024-02-21T11:27:13.395Z,68.27
2024-02-21T11:32:16.485Z,66.83
2024-02-21T11:37:19.174Z,63.92
2024-02-21T11:42:21.823Z,55.00
2024-02-21T11:47:24.374Z,52.96
2024-02-21T11:52:27.457Z,52.13
2024-02-21T11:57:30.516Z,49.94
2024-02-21T12:02:33.293Z,47.95
2024-02-21T12:07:36.672Z,48.68
2024-02-21T12:12:40.161Z,44.77
2024-02-21T12:17:43.225Z,45.48
2024-02-21T12:22:46.155Z,45.27
2024-02-21T12:27:50.095Z,47.88
2024-02-21T12:32:52.664Z,42.65
2024-02-21T12:37:55.186Z,41.89
2024-02-21T12:42:57.888Z,40.70
2024-02-21T12:48:00.326Z,40.53
2024-02-21T12:53:02.834Z,39.44
2024-02-21T12:58:05.362Z,39.34
2024-02-21T13:03:08.139Z,40.33
2024-02-21T13:08:10.777Z,39.41
2024-02-21T13:13:13.333Z,38.82
2024-02-21T13:18:15.929Z,39.23
2024-02-21T13:23:18.361Z,38.87
2024-02-21T13:28:20.888Z,39.52
2024-02-21T13:33:23.418Z,40.21
2024-02-21T13:38:26.109Z,40.28
2024-02-21T13:43:28.912Z,39.26
2024-02-21T13:48:31.580Z,39.41
2024-02-21T13:53:35.268Z,38.39
2024-02-21T13:58:38.579Z,37.72
2024-02-21T14:03:41.035Z,39.04
2024-02-21T14:08:43.741Z,38.13
2024-02-21T14:13:46.289Z,38.67
2024-02-21T14:18:48.981Z,39.63
2024-02-21T14:23:51.626Z,41.69
2024-02-21T14:28:54.399Z,41.21
2024-02-21T14:33:57.074Z,40.82
2024-02-21T14:39:00.240Z,41.20
2024-02-21T14:44:05.112Z,41.28
2024-02-21T14:49:07.777Z,41.51
2024-02-21T14:54:10.733Z,40.62
2024-02-21T14:59:18.509Z,40.36
2024-02-21T15:04:29.054Z,40.62
2024-02-21T15:09:33.627Z,41.31
2024-02-21T15:14:36.698Z,40.93
2024-02-21T15:19:40.522Z,41.04
2024-02-21T15:24:43.616Z,41.50
2024-02-21T15:29:46.110Z,41.92
2024-02-21T15:34:48.938Z,42.56
2024-02-21T15:39:51.547Z,43.42
2024-02-21T15:44:54.180Z,44.57
2024-02-21T15:49:56.612Z,44.38
2024-02-21T15:54:59.223Z,46.20
2024-02-21T16:00:01.650Z,46.45
2024-02-21T16:05:10.073Z,46.80
2024-02-21T16:10:13.026Z,48.46
2024-02-21T16:15:15.538Z,49.04
2024-02-21T16:20:18.198Z,52.06
2024-02-21T16:25:20.814Z,53.00
2024-02-21T16:30:24.535Z,53.17
2024-02-21T16:35:29.240Z,54.33
2024-02-21T16:40:31.870Z,55.65
2024-02-21T16:45:34.844Z,57.39
2024-02-21T16:50:45.221Z,60.14
2024-02-21T16:55:51.999Z,61.96
2024-02-21T17:00:54.471Z,64.13
2024-02-21T17:06:07.043Z,66.02
2024-02-21T17:11:16.933Z,68.11
2024-02-21T17:16:19.819Z,68.22
2024-02-21T17:21:22.203Z,70.06
2024-02-21T17:26:24.919Z,74.75
2024-02-21T17:31:28.972Z,82.97
2024-02-21T17:36:31.437Z,84.67
2024-02-21T17:41:33.872Z,84.19
2024-02-21T17:46:41.084Z,88.23
2024-02-21T17:51:43.695Z,94.17
2024-02-21T17:56:46.112Z,96.73
2024-02-21T18:01:48.543Z,100.00
2024-02-21T18:06:51.209Z,100.00
2024-02-21T18:11:53.956Z,100.00
2024-02-21T18:16:56.676Z,100.00
2024-02-21T18:22:00.050Z,100.00
2024-02-21T18:27:02.416Z,100.00
2024-02-21T18:32:05.010Z,100.00
2024-02-21T18:37:07.442Z,100.00
2024-02-21T18:42:09.866Z,100.00
2024-02-21T18:47:13.306Z,100.00
2024-02-21T18:52:15.785Z,100.00
2024-02-21T18:57:18.165Z,100.00
2024-02-21T19:02:21.144Z,100.00
2024-02-21T19:07:23.804Z,100.00
2024-02-21T19:12:27.490Z,100.00
2024-02-21T19:17:31.316Z,100.00
2024-02-21T19:22:37.334Z,100.00
2024-02-21T19:27:41.145Z,100.00
2024-02-21T19:32:43.724Z,100.00
2024-02-21T19:37:46.170Z,100.00
2024-02-21T19:42:48.599Z,100.00
2024-02-21T19:47:51.168Z,100.00
2024-02-21T19:52:56.716Z,100.00
2024-02-21T19:57:59.899Z,100.00
2024-02-21T20:03:04.424Z,100.00
2024-02-21T20:08:07.256Z,100.00
2024-02-21T20:13:10.048Z,100.00
2024-02-21T20:18:13.512Z,100.00
2024-02-21T20:23:17.019Z,100.00
2024-02-21T20:28:19.508Z,100.00
2024-02-21T20:33:22.246Z,100.00
2024-02-21T20:38:24.790Z,100.00
2024-02-21T20:43:27.250Z,100.00
2024-02-21T20:48:32.127Z,100.00
2024-02-21T20:53:34.496Z,100.00
2024-02-21T20:58:36.974Z,100.00
2024-02-21T21:03:39.962Z,100.00
2024-02-21T21:08:42.472Z,100.00
2024-02-21T21:13:44.995Z,100.00
2024-02-21T21:18:47.562Z,100.00
2024-02-21T21:23:50.012Z,100.00
2024-02-21T21:28:57.625Z,100.00
2024-02-21T21:34:00.244Z,100.00
2024-02-21T21:39:05.923Z,100.00
2024-02-21T21:44:08.408Z,100.00
2024-02-21T21:49:10.925Z,100.00
2024-02-21T21:54:13.395Z,100.00
2024-02-21T21:59:15.786Z,100.00
2024-02-21T22:04:19.392Z,100.00
2024-02-21T22:09:21.953Z,100.00
2024-02-21T22:14:24.452Z,100.00
2024-02-21T22:19:26.996Z,100.00
2024-02-21T22:24:29.538Z,100.00
2024-02-21T22:29:31.964Z,100.00
2024-02-21T22:34:34.710Z,100.00
2024-02-21T22:39:37.498Z,100.00
2024-02-21T22:44:39.976Z,100.00
2024-02-21T22:49:42.549Z,100.00
2024-02-21T22:54:44.990Z,100.00
2024-02-21T22:59:47.809Z,100.00
2024-02-21T23:04:50.352Z,100.00
2024-02-21T23:09:52.763Z,100.00
2024-02-21T23:14:55.161Z,100.00
2024-02-21T23:19:57.659Z,100.00
2024-02-21T23:25:00.031Z,100.00
2024-02-21T23:30:02.486Z,100.00
2024-02-21T23:35:05.872Z,100.00
2024-02-21T23:40:11.125Z,100.00
2024-02-21T23:45:13.583Z,100.00
2024-02-21T23:50:16.037Z,100.00
2024-02-21T23:55:18.426Z,100.00
